createdAt,value
2022-11-22T00:00:09.108Z,0.85
2022-11-22T00:04:11.418Z,0.68
2022-11-22T00:08:13.451Z,1.48
2022-11-22T00:12:15.490Z,0.98
2022-11-22T00:16:17.569Z,0.95
2022-11-22T00:20:19.575Z,1.00
2022-11-22T00:24:21.746Z,0.75
2022-11-22T00:28:23.697Z,0.65
2022-11-22T00:32:25.858Z,1.00
2022-11-22T00:36:28.183Z,0.70
2022-11-22T00:40:30.223Z,1.17
2022-11-22T00:44:32.369Z,1.08
2022-11-22T00:48:34.441Z,1.25
2022-11-22T00:52:36.429Z,0.90
2022-11-22T00:56:38.570Z,1.48
2022-11-22T01:00:40.860Z,0.80
2022-11-22T01:04:44.460Z,0.97
2022-11-22T01:08:46.611Z,1.20
2022-11-22T01:12:48.657Z,1.10
2022-11-22T01:16:50.667Z,0.70
2022-11-22T01:20:52.777Z,0.73
2022-11-22T01:24:54.865Z,0.98
2022-11-22T01:28:56.862Z,0.50
2022-11-22T01:32:58.949Z,0.52
2022-11-22T01:37:01.153Z,0.70
2022-11-22T01:41:03.121Z,0.68
2022-11-22T01:45:45.706Z,0.93
2022-11-22T01:49:51.720Z,0.65
2022-11-22T01:53:56.399Z,0.30
2022-11-22T01:57:58.850Z,0.38
2022-11-22T02:02:01.886Z,0.30
2022-11-22T02:06:05.987Z,0.40
2022-11-22T02:10:09.102Z,0.30
2022-11-22T02:14:12.578Z,0.40
2022-11-22T02:18:14.639Z,0.50
2022-11-22T02:22:44.487Z,0.57
2022-11-22T02:26:46.939Z,0.40
2022-11-22T02:30:49.326Z,0.60
2022-11-22T02:34:52.629Z,0.60
2022-11-22T02:38:55.762Z,0.30
2022-11-22T02:43:05.393Z,0.45
2022-11-22T02:47:07.466Z,0.45
2022-11-22T02:51:10.648Z,0.40
2022-11-22T02:55:15.498Z,0.30
2022-11-22T02:59:17.770Z,0.52
2022-11-22T03:03:19.832Z,0.88
2022-11-22T03:07:21.906Z,0.30
2022-11-22T03:11:24.888Z,0.40
2022-11-22T03:15:26.994Z,0.45
2022-11-22T03:19:29.139Z,0.55
2022-11-22T03:23:31.507Z,0.50
2022-11-22T03:27:33.543Z,0.30
2022-11-22T03:31:38.186Z,0.20
2022-11-22T03:35:40.307Z,0.30
2022-11-22T03:39:42.754Z,0.30
2022-11-22T03:43:44.813Z,0.30
2022-11-22T03:47:46.928Z,0.30
2022-11-22T03:51:48.877Z,0.40
2022-11-22T03:55:53.665Z,0.30
2022-11-22T03:59:55.806Z,0.20
2022-11-22T04:03:57.849Z,0.40
2022-11-22T04:07:59.857Z,0.30
2022-11-22T04:12:01.974Z,0.25
2022-11-22T04:16:04.247Z,0.10
2022-11-22T04:20:35.078Z,0.47
2022-11-22T04:24:55.845Z,0.10
2022-11-22T04:29:11.054Z,0.10
2022-11-22T04:37:15.540Z,0.10
2022-11-22T04:41:17.857Z,0.10
2022-11-22T04:45:20.080Z,0.20
2022-11-22T04:49:22.467Z,1.80
2022-11-22T04:53:24.933Z,0.85
2022-11-22T04:57:27.046Z,0.10
2022-11-22T05:01:29.094Z,0.00
2022-11-22T05:05:34.528Z,0.00
2022-11-22T05:09:36.557Z,0.03
2022-11-22T05:13:40.707Z,0.10
2022-11-22T05:17:42.875Z,0.00
2022-11-22T05:21:45.061Z,0.00
2022-11-22T05:25:47.354Z,0.00
2022-11-22T05:29:49.758Z,0.05
2022-11-22T05:33:53.492Z,0.10
2022-11-22T05:37:57.033Z,0.00
2022-11-22T05:41:59.324Z,0.00
2022-11-22T05:46:08.297Z,0.03
2022-11-22T05:50:10.354Z,0.10
2022-11-22T05:54:12.352Z,0.00
2022-11-22T05:58:14.615Z,0.00
2022-11-22T06:02:16.974Z,0.10
2022-11-22T06:06:19.283Z,0.10
2022-11-22T06:10:21.956Z,0.20
2022-11-22T06:19:10.215Z,0.10
2022-11-22T06:23:12.449Z,0.20
2022-11-22T06:27:14.973Z,0.20
2022-11-22T06:31:26.449Z,0.20
2022-11-22T06:35:28.749Z,0.60
2022-11-22T06:39:31.238Z,0.32
2022-11-22T06:43:36.758Z,0.20
2022-11-22T06:47:38.866Z,0.25
2022-11-22T06:51:41.213Z,0.10
2022-11-22T06:55:53.506Z,0.10
2022-11-22T06:59:58.928Z,0.20
2022-11-22T07:04:02.071Z,0.10
2022-11-22T07:08:10.364Z,0.10
2022-11-22T07:12:14.199Z,0.30
2022-11-22T07:16:19.199Z,0.10
2022-11-22T07:20:21.263Z,0.32
2022-11-22T07:24:23.340Z,0.30
2022-11-22T07:28:25.991Z,0.35
2022-11-22T07:32:28.327Z,0.40
2022-11-22T07:36:30.593Z,0.30
2022-11-22T07:40:32.992Z,0.40
2022-11-22T07:44:35.274Z,0.30
2022-11-22T07:48:37.378Z,0.73
2022-11-22T07:52:39.864Z,0.30
2022-11-22T07:56:42.631Z,0.20
2022-11-22T08:00:44.838Z,0.50
2022-11-22T08:04:46.908Z,0.20
2022-11-22T08:08:48.976Z,0.40
2022-11-22T08:12:51.268Z,0.38
2022-11-22T08:16:53.339Z,0.80
2022-11-22T08:21:06.913Z,0.28
2022-11-22T08:25:12.683Z,0.40
2022-11-22T08:29:14.830Z,0.93
2022-11-22T08:33:16.892Z,1.00
2022-11-22T08:37:18.996Z,1.45
2022-11-22T08:41:21.080Z,0.60
2022-11-22T08:45:23.577Z,0.60
2022-11-22T08:49:26.137Z,0.68
2022-11-22T08:53:29.914Z,0.55
2022-11-22T08:57:32.327Z,0.40
2022-11-22T09:01:34.527Z,1.02
2022-11-22T09:05:36.837Z,0.90
2022-11-22T09:09:38.895Z,1.00
2022-11-22T09:13:41.610Z,0.90
2022-11-22T09:17:44.345Z,1.60
2022-11-22T09:21:46.339Z,1.10
2022-11-22T09:25:48.369Z,0.90
2022-11-22T09:29:50.608Z,1.42
2022-11-22T09:33:52.751Z,1.48
2022-11-22T09:37:55.296Z,0.73
2022-11-22T09:42:27.940Z,0.77
2022-11-22T09:46:39.625Z,6.68
2022-11-22T09:51:09.703Z,18.55
2022-11-22T09:55:23.889Z,12.95
2022-11-22T09:59:33.056Z,1.25
2022-11-22T10:03:42.519Z,1.70
2022-11-22T10:07:52.137Z,0.90
2022-11-22T10:12:10.088Z,1.02
2022-11-22T10:16:24.905Z,0.50
2022-11-22T10:20:31.311Z,0.52
2022-11-22T10:24:37.522Z,0.50
2022-11-22T10:28:51.146Z,0.52
2022-11-22T10:33:02.707Z,0.50
2022-11-22T10:37:39.135Z,0.50
2022-11-22T10:42:00.816Z,1.83
2022-11-22T10:46:52.267Z,0.70
2022-11-22T10:51:03.428Z,0.65
2022-11-22T10:55:51.852Z,0.30
2022-11-22T10:59:59.901Z,0.80
2022-11-22T11:04:04.140Z,0.60
2022-11-22T11:12:58.385Z,0.40
2022-11-22T11:17:01.818Z,0.60
2022-11-22T11:21:07.781Z,0.50
2022-11-22T11:25:40.823Z,0.20
2022-11-22T11:29:50.415Z,0.55
2022-11-22T11:33:55.153Z,0.50
2022-11-22T11:37:57.214Z,0.43
2022-11-22T11:41:59.918Z,0.52
2022-11-22T11:46:17.383Z,1.30
2022-11-22T11:50:25.499Z,0.82
2022-11-22T11:54:45.689Z,0.65
2022-11-22T11:58:53.355Z,0.90
2022-11-22T12:03:01.639Z,0.40
2022-11-22T12:07:25.295Z,0.47
2022-11-22T12:11:40.577Z,0.40
2022-11-22T12:16:19.725Z,0.65
2022-11-22T12:20:44.256Z,0.30
2022-11-22T12:25:31.479Z,0.30
2022-11-22T12:29:35.385Z,0.37
2022-11-22T12:33:42.201Z,0.57
2022-11-22T12:37:55.219Z,0.50
2022-11-22T12:42:24.544Z,0.40
2022-11-22T12:46:39.724Z,0.43
2022-11-22T12:50:46.701Z,0.30
2022-11-22T12:55:09.564Z,0.40
2022-11-22T12:59:22.175Z,0.40
2022-11-22T13:03:33.654Z,0.57
2022-11-22T13:07:35.801Z,0.70
2022-11-22T13:11:45.267Z,0.60
2022-11-22T13:15:49.683Z,0.50
2022-11-22T13:20:03.491Z,0.47
2022-11-22T13:24:39.141Z,0.33
2022-11-22T13:28:42.311Z,0.50
2022-11-22T13:32:51.762Z,0.52
2022-11-22T13:36:56.689Z,0.38
2022-11-22T13:41:22.663Z,0.35
2022-11-22T13:45:25.665Z,0.30
2022-11-22T13:49:46.807Z,0.52
2022-11-22T13:53:52.701Z,0.40
2022-11-22T13:57:54.963Z,0.40
2022-11-22T14:01:59.941Z,0.40
2022-11-22T14:06:20.682Z,0.50
2022-11-22T14:10:44.234Z,0.55
2022-11-22T14:14:51.977Z,0.40
2022-11-22T14:19:02.655Z,0.40
2022-11-22T14:23:24.528Z,0.38
2022-11-22T14:27:46.549Z,0.50
2022-11-22T14:32:00.894Z,0.55
2022-11-22T14:36:11.929Z,0.57
2022-11-22T14:40:27.327Z,1.17
2022-11-22T14:44:34.785Z,0.82
2022-11-22T14:48:50.809Z,0.45
2022-11-22T14:52:58.674Z,0.47
2022-11-22T14:57:06.460Z,0.90
2022-11-22T15:01:21.292Z,1.20
2022-11-22T15:09:10.194Z,2.20
2022-11-22T15:10:09.811Z,1.70
2022-11-22T15:14:29.037Z,1.70
2022-11-22T15:59:07.735Z,0.35
2022-11-22T16:03:23.013Z,0.55
2022-11-22T16:07:33.879Z,0.50
2022-11-22T16:11:40.970Z,0.20
2022-11-22T16:15:43.439Z,0.30
2022-11-22T16:19:46.082Z,0.20
2022-11-22T16:28:38.264Z,0.10
2022-11-22T16:32:51.492Z,0.10
2022-11-22T16:36:54.120Z,0.13
2022-11-22T16:41:00.287Z,0.20
2022-11-22T16:45:20.009Z,0.22
2022-11-22T16:49:54.947Z,0.40
2022-11-22T16:54:08.591Z,0.32
2022-11-22T16:58:28.947Z,0.20
2022-11-22T17:02:35.280Z,0.20
2022-11-22T17:06:39.375Z,0.30
2022-11-22T17:10:51.709Z,0.08
2022-11-22T17:14:55.048Z,0.30
2022-11-22T17:19:02.921Z,0.30
2022-11-22T17:23:16.902Z,0.60
2022-11-22T17:27:19.264Z,0.30
2022-11-22T17:31:23.276Z,0.47
2022-11-22T17:35:26.242Z,0.20
2022-11-22T17:39:28.730Z,0.35
2022-11-22T17:43:31.265Z,0.40
2022-11-22T17:47:36.676Z,0.22
2022-11-22T17:51:40.680Z,0.30
2022-11-22T17:56:09.029Z,0.30
2022-11-22T18:00:07.966Z,0.30
2022-11-22T18:04:11.456Z,0.50
2022-11-22T18:08:13.791Z,1.15
2022-11-22T19:45:34.868Z,0.15
2022-11-22T19:49:37.529Z,0.55
2022-11-22T19:53:40.570Z,0.40
2022-11-22T19:57:47.411Z,0.20
2022-11-22T20:01:52.354Z,0.10
2022-11-22T20:06:21.511Z,0.30
2022-11-22T20:14:54.366Z,1.08
2022-11-22T20:19:14.076Z,0.98
2022-11-22T20:23:32.210Z,2.90
2022-11-22T20:32:09.384Z,2.95
2022-11-22T20:36:15.321Z,1.65
2022-11-22T20:40:17.753Z,1.98
2022-11-22T20:44:25.933Z,1.73
2022-11-22T20:48:31.886Z,1.55
2022-11-22T20:52:35.598Z,1.17
2022-11-22T20:56:39.010Z,1.40
2022-11-22T21:00:44.127Z,1.40
2022-11-22T21:04:47.028Z,1.67
2022-11-22T21:08:50.790Z,0.93
2022-11-22T21:12:55.150Z,1.00
2022-11-22T21:17:11.112Z,3.33
2022-11-22T21:21:23.808Z,1.60
2022-11-22T21:25:27.324Z,3.55
2022-11-22T21:29:30.199Z,3.45
2022-11-22T21:33:34.760Z,3.67
2022-11-22T21:41:40.635Z,1.58
2022-11-22T21:45:43.239Z,1.60
2022-11-22T21:49:47.172Z,5.07
2022-11-22T21:53:49.368Z,2.85
2022-11-22T21:57:51.515Z,1.30
2022-11-22T22:01:53.581Z,1.25
2022-11-22T22:05:56.310Z,1.00
2022-11-22T22:09:58.361Z,0.73
2022-11-22T22:14:00.413Z,1.05
2022-11-22T22:18:03.570Z,1.80
2022-11-22T22:22:06.010Z,1.52
2022-11-22T22:26:11.191Z,1.13
2022-11-22T22:30:13.732Z,1.90
2022-11-22T22:34:18.317Z,0.80
2022-11-22T22:42:22.287Z,1.00
2022-11-22T22:46:27.234Z,1.17
2022-11-22T22:50:29.289Z,0.93
2022-11-22T22:54:31.680Z,1.00
2022-11-22T22:58:34.301Z,1.00
2022-11-22T23:02:36.942Z,1.10
2022-11-22T23:06:40.227Z,0.90
2022-11-22T23:10:44.282Z,1.00
2022-11-22T23:14:46.457Z,1.30
2022-11-22T23:18:48.415Z,4.20
2022-11-22T23:22:50.505Z,1.88
2022-11-22T23:26:52.656Z,1.10
2022-11-22T23:30:55.315Z,0.85
2022-11-22T23:34:57.740Z,0.60
2022-11-22T23:39:00.247Z,0.90
2022-11-22T23:43:02.220Z,0.90
2022-11-22T23:47:04.277Z,0.95
2022-11-22T23:51:06.541Z,1.02
2022-11-22T23:55:08.809Z,0.90
2022-11-22T23:59:10.834Z,0.93
